Terminal Aerodrome Forecast
Issued by NWS

Home | Current Version | Previous Version | Text Only | Print | Product List | Glossary On
Versions: 1 2 3 4 5 6 7 8 9 10 11 12 13 14 15 16 17 18
000
FTUS43 KMQT 300053 AAA
TAFSAW
TAF AMD
KSAW 300053Z 3001/3024 07007KT 1/2SM -SHRA FG OVC002
     FM300400 01009KT 2SM -RA BR OVC008
      TEMPO 3004/3007 3/4SM -RA BR OVC004
     FM300700 36011G16KT 6SM -SHRA OVC010
     FM301000 36012G18KT P6SM OVC045
     FM301400 36012G18KT P6SM BKN150=

USA.gov is the U.S. government's official web portal to all federal, state and local government web resources and services.